SUCCESS DAM (SCC)

Elevation: 692' · TULE R basin · Operator: US Army Corps of Engineers

Provisional data, subject to change.
Query executed Sunday at 0:26:59   clock

Select a sensor type for a plot of data.
Note: Reservoir Flows are daily averages.

Earlier

Date RES ELE    STORAGE    RES CHG    TOC STO    ABV TOC    OUTFLOW    INFLOW    FNF    PPT INC    PPTINC4    TEMP MN    TEMP MX    WINDLEN    EVP PAN   
 FEET   AF   AF   AF   AF   CFS   CFS   CFS   INCHES   INCHES   DEG F   DEG F   MILES   INCHES  
03/20/2015 590.18 7824 43 25896 -18072 3 27 27 0.00 0.00 12 29 57 0.18
03/21/2015 590.31 7880 56 26217 -18337 2 32 32 0.00 0.00 10 26 63 0.18
03/22/2015 590.43 7932 52 26538 -18606 1 30 30 0.00 0.00 10 26 85 0.19
03/23/2015 590.54 7980 48 26858 -18878 2 28 28 0.00 0.00 12 23 70 0.16
03/24/2015 590.65 8028 48 27179 -19151 3 29 29 0.00 0.00 7 23 59 0.16
03/25/2015 590.76 8076 48 27500 -19424 2 29 29 0.00 0.00 9 27 54 0.18
03/26/2015 590.86 8120 44 27821 -19701 4 29 29 0.00 0.00 11 32 58 0.21
03/27/2015 590.95 8160 40 28141 -19981 3 26 26 0.00 0.00 14 34 62 0.23
03/28/2015 -- -- -- -- -- -- -- 26 0.00 0.00 -- -- -- --
03/29/2015 591.14 8244 -- 30744 -- 1 24 24 0.00 0.00 14 30 63 0.22
03/30/2015 591.22 8280 -- 32355 -- 3 24 24 0.00 0.00 13 32 65 0.23
03/31/2015 591.29 8311 --r 33967 -- 4 22 22 0.00 0.00 10 26 75 0.20
04/01/2015 591.36 8343 -- 35578 -27235 3 22 22 0.00 0.00 7 23 77 0.19
04/02/2015 591.43 8374 31 37189 -28815 3 21 21 0.00 0.00 4 23 68 0.19
04/03/2015 591.50 8406 32 38800 -30394 3 22 22 0.00 0.00 8 27 63 0.21
04/04/2015 591.58 8442 36 40411 -31969 2 23 23 0.00 0.00 7 27 55 0.21
04/05/2015 591.64 8469 27 42022 -33553 1 17 17 0.00 0.00 6 22 68 0.19
04/06/2015 591.72 8506 37 43633 -35127 1 22 22 0.00 0.00 8 20 60 0.17
04/07/2015 591.87 8574 68 45244 -36670 1 37 37 0.39 0.00 7 19 88 0.11
04/08/2015 592.03 8648 74 46855 -38207 1 40 40 0.00 0.39 5 18 54 0.15
04/09/2015 592.18 8717 69 48467 -39750 1 38 38 0.00 e 0.00 5 20 50 0.14
04/10/2015 592.30 8773 56 50078 -41305 1 32 32 0.00 e 0.00 8 25 60 0.20
04/11/2015 592.38 8810 37 51689 -42879 1 22 22 0.02 0.00 8 26 63 0.21
04/12/2015 592.44 8838 28 53300 -44462 1 18 18 0.03 0.00 8 27 55 0.22
04/13/2015 592.48 8857 -- 54911 -- 1 14 14 0.03 0.00 13 31 69 0.26
04/14/2015 592.52 8876 -- 56522 -- 1 13 13 0.00 0.00 9 22 67 0.16
04/15/2015 592.54 8885 9 58133 -49248 1 8 8 0.00 0.00 5 23 56 0.20
04/16/2015 592.56 8895 10 59744 -50849 1 9 9 0.00 0.00 10 28 63 0.23
04/17/2015 592.57 8899 4 61356 -52457 1 6 -- 0.00 0.00 11 29 65 0.25
04/18/2015 -- -- -- -- -- -- -- -- -- 0.00 -- -- -- --
04/19/2015 -- -- -- -- -- -- -- -- -- -- -- -- -- --

Later | Latest

Warning! This data is preliminary and subject to revision.

Show SCC Map | Plot SCC Data | 1 Month SCC Data | Real-Time SCC Data | SCC Info